sensor_id;sensor_type;location;lat;lon;timestamp;pressure;altitude;pressure_sealevel;temperature;humidity
22018;BME280;11173;51.050;7.108;2023-10-08T00:06:11;100227.03;;;17.02;57.40
22018;BME280;11173;51.050;7.108;2023-10-08T00:16:14;100240.78;;;17.00;57.24
22018;BME280;11173;51.050;7.108;2023-10-08T00:26:17;100225.91;;;16.99;57.29
22018;BME280;11173;51.050;7.108;2023-10-08T00:36:27;100245.63;;;16.99;57.17
22018;BME280;11173;51.050;7.108;2023-10-08T00:46:28;100256.31;;;16.92;56.91
22018;BME280;11173;51.050;7.108;2023-10-08T00:56:36;100218.38;;;16.83;57.29
22018;BME280;11173;51.050;7.108;2023-10-08T01:06:56;100237.16;;;16.86;57.25
22018;BME280;11173;51.050;7.108;2023-10-08T01:17:01;100232.66;;;16.76;57.26
22018;BME280;11173;51.050;7.108;2023-10-08T01:27:02;100227.88;;;16.60;57.43
22018;BME280;11173;51.050;7.108;2023-10-08T01:37:05;100213.16;;;16.43;57.06
22018;BME280;11173;51.050;7.108;2023-10-08T01:47:09;100238.38;;;16.18;57.28
22018;BME280;11173;51.050;7.108;2023-10-08T01:57:11;100248.28;;;15.93;57.60
22018;BME280;11173;51.050;7.108;2023-10-08T02:07:12;100245.44;;;15.64;58.15
22018;BME280;11173;51.050;7.108;2023-10-08T02:17:12;100235.66;;;15.39;58.26
22018;BME280;11173;51.050;7.108;2023-10-08T02:27:13;100242.94;;;15.20;58.38
22018;BME280;11173;51.050;7.108;2023-10-08T02:37:15;100242.72;;;15.11;59.06
22018;BME280;11173;51.050;7.108;2023-10-08T02:47:15;100255.91;;;15.14;59.32
22018;BME280;11173;51.050;7.108;2023-10-08T02:57:21;100232.41;;;15.24;59.30
22018;BME280;11173;51.050;7.108;2023-10-08T03:07:21;100232.31;;;15.28;58.71
22018;BME280;11173;51.050;7.108;2023-10-08T03:17:22;100235.03;;;15.31;58.98
22018;BME280;11173;51.050;7.108;2023-10-08T03:27:22;100251.69;;;15.39;58.58
22018;BME280;11173;51.050;7.108;2023-10-08T03:37:26;100271.59;;;15.44;58.65
22018;BME280;11173;51.050;7.108;2023-10-08T03:47:30;100234.94;;;15.35;58.37
22018;BME280;11173;51.050;7.108;2023-10-08T03:57:32;100287.56;;;15.15;58.33
22018;BME280;11173;51.050;7.108;2023-10-08T04:07:41;100251.94;;;14.95;58.77
22018;BME280;11173;51.050;7.108;2023-10-08T04:18:02;100252.97;;;14.85;58.88
22018;BME280;11173;51.050;7.108;2023-10-08T04:28:03;100247.84;;;14.80;58.58
22018;BME280;11173;51.050;7.108;2023-10-08T04:38:04;100246.00;;;14.73;58.71
22018;BME280;11173;51.050;7.108;2023-10-08T04:48:08;100285.56;;;14.59;58.79
22018;BME280;11173;51.050;7.108;2023-10-08T04:58:09;100304.19;;;14.49;59.22
22018;BME280;11173;51.050;7.108;2023-10-08T05:08:22;100293.84;;;14.46;59.42
22018;BME280;11173;51.050;7.108;2023-10-08T05:18:32;100270.63;;;14.45;59.57
22018;BME280;11173;51.050;7.108;2023-10-08T05:28:52;100282.63;;;14.46;59.31
22018;BME280;11173;51.050;7.108;2023-10-08T05:39:02;100309.44;;;14.47;59.04
22018;BME280;11173;51.050;7.108;2023-10-08T05:49:19;100335.97;;;14.42;59.90
22018;BME280;11173;51.050;7.108;2023-10-08T05:59:26;100354.53;;;14.56;59.76
22018;BME280;11173;51.050;7.108;2023-10-08T06:09:39;100339.84;;;14.68;59.44
22018;BME280;11173;51.050;7.108;2023-10-08T06:19:40;100317.09;;;14.83;59.35
22018;BME280;11173;51.050;7.108;2023-10-08T06:29:40;100317.75;;;14.90;59.10
22018;BME280;11173;51.050;7.108;2023-10-08T06:39:44;100318.53;;;14.91;59.27
22018;BME280;11173;51.050;7.108;2023-10-08T06:49:47;100352.00;;;15.02;59.59
22018;BME280;11173;51.050;7.108;2023-10-08T06:59:48;100359.59;;;15.21;59.79
22018;BME280;11173;51.050;7.108;2023-10-08T07:09:50;100339.41;;;15.43;59.27
22018;BME280;11173;51.050;7.108;2023-10-08T07:19:52;100336.44;;;15.50;59.25
22018;BME280;11173;51.050;7.108;2023-10-08T07:29:53;100353.56;;;15.72;59.50
22018;BME280;11173;51.050;7.108;2023-10-08T07:39:55;100365.94;;;15.91;59.62
22018;BME280;11173;51.050;7.108;2023-10-08T07:49:56;100405.81;;;16.19;59.38
22018;BME280;11173;51.050;7.108;2023-10-08T07:59:56;100413.75;;;16.37;58.61
22018;BME280;11173;51.050;7.108;2023-10-08T08:10:17;100402.34;;;16.44;58.23
22018;BME280;11173;51.050;7.108;2023-10-08T08:20:18;100410.13;;;16.53;58.62
22018;BME280;11173;51.050;7.108;2023-10-08T08:30:19;100421.25;;;16.73;58.03
22018;BME280;11173;51.050;7.108;2023-10-08T08:40:20;100431.03;;;16.97;58.63
22018;BME280;11173;51.050;7.108;2023-10-08T08:50:25;100428.84;;;17.30;58.26
22018;BME280;11173;51.050;7.108;2023-10-08T09:00:29;100433.81;;;17.52;58.50
22018;BME280;11173;51.050;7.108;2023-10-08T09:10:31;100421.91;;;17.74;57.77
22018;BME280;11173;51.050;7.108;2023-10-08T09:20:37;100433.16;;;17.99;57.58
22018;BME280;11173;51.050;7.108;2023-10-08T09:30:44;100457.91;;;18.30;57.75
22018;BME280;11173;51.050;7.108;2023-10-08T09:40:48;100438.44;;;18.58;58.14
22018;BME280;11173;51.050;7.108;2023-10-08T09:50:51;100466.97;;;18.95;57.07
22018;BME280;11173;51.050;7.108;2023-10-08T10:00:54;100473.41;;;19.17;56.73
22018;BME280;11173;51.050;7.108;2023-10-08T10:10:58;100484.19;;;19.32;56.18
22018;BME280;11173;51.050;7.108;2023-10-08T10:31:19;100471.97;;;19.66;56.70
22018;BME280;11173;51.050;7.108;2023-10-08T10:41:19;100477.72;;;19.94;55.97
22018;BME280;11173;51.050;7.108;2023-10-08T10:51:20;100469.50;;;20.09;55.82
22018;BME280;11173;51.050;7.108;2023-10-08T11:01:26;100462.72;;;20.06;55.32
22018;BME280;11173;51.050;7.108;2023-10-08T11:11:29;100464.34;;;19.85;56.01
22018;BME280;11173;51.050;7.108;2023-10-08T11:21:29;100469.19;;;19.84;55.54
22018;BME280;11173;51.050;7.108;2023-10-08T11:31:34;100475.66;;;19.85;56.03
22018;BME280;11173;51.050;7.108;2023-10-08T11:41:34;100470.50;;;19.93;55.50
22018;BME280;11173;51.050;7.108;2023-10-08T11:51:51;100456.53;;;19.98;55.31
22018;BME280;11173;51.050;7.108;2023-10-08T12:01:56;100438.91;;;19.94;55.49
22018;BME280;11173;51.050;7.108;2023-10-08T12:11:56;100436.25;;;20.00;55.69
22018;BME280;11173;51.050;7.108;2023-10-08T12:22:00;100432.66;;;19.99;55.44
22018;BME280;11173;51.050;7.108;2023-10-08T12:32:03;100425.97;;;20.15;55.88
22018;BME280;11173;51.050;7.108;2023-10-08T12:42:09;100423.63;;;20.23;55.47
22018;BME280;11173;51.050;7.108;2023-10-08T12:52:09;100407.88;;;20.22;55.32
22018;BME280;11173;51.050;7.108;2023-10-08T13:02:13;100373.94;;;20.13;55.80
22018;BME280;11173;51.050;7.108;2023-10-08T13:12:16;100382.13;;;20.20;55.55
22018;BME280;11173;51.050;7.108;2023-10-08T13:22:17;100374.44;;;20.30;55.39
22018;BME280;11173;51.050;7.108;2023-10-08T13:32:20;100377.41;;;20.44;55.93
22018;BME280;11173;51.050;7.108;2023-10-08T13:42:20;100364.53;;;20.43;55.58
22018;BME280;11173;51.050;7.108;2023-10-08T13:52:20;100362.16;;;20.42;55.30
22018;BME280;11173;51.050;7.108;2023-10-08T14:02:21;100338.44;;;20.39;55.28
22018;BME280;11173;51.050;7.108;2023-10-08T14:12:21;100328.03;;;20.36;55.46
22018;BME280;11173;51.050;7.108;2023-10-08T14:22:22;100322.22;;;20.49;56.40
22018;BME280;11173;51.050;7.108;2023-10-08T14:32:22;100314.81;;;20.79;55.35
22018;BME280;11173;51.050;7.108;2023-10-08T14:42:25;100314.16;;;20.84;55.06
22018;BME280;11173;51.050;7.108;2023-10-08T14:52:44;100309.44;;;20.91;55.16
22018;BME280;11173;51.050;7.108;2023-10-08T15:02:45;100322.47;;;20.88;54.73
22018;BME280;11173;51.050;7.108;2023-10-08T15:12:45;100327.38;;;20.69;54.74
22018;BME280;11173;51.050;7.108;2023-10-08T15:22:47;100313.44;;;20.47;54.80
22018;BME280;11173;51.050;7.108;2023-10-08T15:32:49;100310.78;;;20.25;55.02
22018;BME280;11173;51.050;7.108;2023-10-08T15:42:51;100312.81;;;20.06;55.40
22018;BME280;11173;51.050;7.108;2023-10-08T15:52:52;100295.00;;;19.78;55.39
22018;BME280;11173;51.050;7.108;2023-10-08T16:02:54;100293.03;;;19.38;55.20
22018;BME280;11173;51.050;7.108;2023-10-08T16:12:54;100293.75;;;18.88;55.68
22018;BME280;11173;51.050;7.108;2023-10-08T16:22:57;100283.69;;;18.34;56.69
22018;BME280;11173;51.050;7.108;2023-10-08T16:32:57;100286.34;;;17.94;57.43
22018;BME280;11173;51.050;7.108;2023-10-08T16:42:58;100271.03;;;17.47;57.72
22018;BME280;11173;51.050;7.108;2023-10-08T16:52:58;100282.19;;;17.12;58.16
22018;BME280;11173;51.050;7.108;2023-10-08T17:02:59;100290.38;;;16.81;60.52
22018;BME280;11173;51.050;7.108;2023-10-08T17:13:00;100296.19;;;16.61;60.91
22018;BME280;11173;51.050;7.108;2023-10-08T17:23:00;100285.91;;;16.41;60.08
22018;BME280;11173;51.050;7.108;2023-10-08T17:33:01;100280.47;;;16.21;62.70
22018;BME280;11173;51.050;7.108;2023-10-08T17:43:01;100261.03;;;15.98;62.98
22018;BME280;11173;51.050;7.108;2023-10-08T17:53:04;100256.03;;;15.73;63.67
22018;BME280;11173;51.050;7.108;2023-10-08T18:03:05;100240.81;;;15.57;62.50
22018;BME280;11173;51.050;7.108;2023-10-08T18:13:06;100226.34;;;15.42;64.58
22018;BME280;11173;51.050;7.108;2023-10-08T18:23:07;100219.59;;;15.40;65.18
22018;BME280;11173;51.050;7.108;2023-10-08T18:33:11;100216.59;;;15.30;65.72
22018;BME280;11173;51.050;7.108;2023-10-08T18:43:11;100213.19;;;15.23;66.23
22018;BME280;11173;51.050;7.108;2023-10-08T18:53:18;100209.16;;;15.07;67.07
22018;BME280;11173;51.050;7.108;2023-10-08T19:03:19;100199.59;;;14.88;68.63
22018;BME280;11173;51.050;7.108;2023-10-08T19:13:21;100191.50;;;14.74;69.47
22018;BME280;11173;51.050;7.108;2023-10-08T19:23:22;100186.13;;;14.63;69.56
22018;BME280;11173;51.050;7.108;2023-10-08T19:33:22;100177.25;;;14.48;71.50
22018;BME280;11173;51.050;7.108;2023-10-08T19:43:23;100162.31;;;14.35;71.95
22018;BME280;11173;51.050;7.108;2023-10-08T19:53:23;100166.16;;;14.25;71.79
22018;BME280;11173;51.050;7.108;2023-10-08T20:03:24;100156.56;;;14.06;74.23
22018;BME280;11173;51.050;7.108;2023-10-08T20:13:24;100137.88;;;13.99;74.67
22018;BME280;11173;51.050;7.108;2023-10-08T20:23:25;100139.81;;;14.02;73.70
22018;BME280;11173;51.050;7.108;2023-10-08T20:33:29;100144.53;;;14.05;73.15
22018;BME280;11173;51.050;7.108;2023-10-08T20:43:30;100145.84;;;14.01;73.76
22018;BME280;11173;51.050;7.108;2023-10-08T20:53:32;100122.31;;;13.98;72.46
22018;BME280;11173;51.050;7.108;2023-10-08T21:03:35;100119.56;;;13.95;69.86
22018;BME280;11173;51.050;7.108;2023-10-08T21:13:40;100100.91;;;13.88;68.69
22018;BME280;11173;51.050;7.108;2023-10-08T21:23:40;100125.88;;;13.99;68.37
22018;BME280;11173;51.050;7.108;2023-10-08T21:33:41;100110.84;;;14.09;67.90
22018;BME280;11173;51.050;7.108;2023-10-08T21:43:41;100109.25;;;14.28;67.90
22018;BME280;11173;51.050;7.108;2023-10-08T21:53:42;100099.25;;;14.43;68.04
22018;BME280;11173;51.050;7.108;2023-10-08T22:03:45;100105.34;;;14.58;67.21
22018;BME280;11173;51.050;7.108;2023-10-08T22:13:45;100100.34;;;14.66;66.97
22018;BME280;11173;51.050;7.108;2023-10-08T22:23:46;100095.09;;;14.68;67.13
22018;BME280;11173;51.050;7.108;2023-10-08T22:33:47;100075.63;;;14.61;66.89
22018;BME280;11173;51.050;7.108;2023-10-08T22:43:48;100081.22;;;14.61;66.79
22018;BME280;11173;51.050;7.108;2023-10-08T22:53:55;100069.06;;;14.51;66.48
22018;BME280;11173;51.050;7.108;2023-10-08T23:03:58;100061.06;;;14.33;66.50
22018;BME280;11173;51.050;7.108;2023-10-08T23:14:02;100063.59;;;14.11;65.88
22018;BME280;11173;51.050;7.108;2023-10-08T23:24:05;100047.44;;;13.82;66.25
22018;BME280;11173;51.050;7.108;2023-10-08T23:34:07;100027.41;;;13.64;66.76
22018;BME280;11173;51.050;7.108;2023-10-08T23:44:10;100005.22;;;13.53;66.82
22018;BME280;11173;51.050;7.108;2023-10-08T23:54:12;100016.22;;;13.44;67.01
